createdAt,value
2018-07-19T00:00:11.289Z,101913.80
2018-07-19T00:02:40.647Z,101921.47
2018-07-19T00:05:10.106Z,101913.43
2018-07-19T00:07:39.468Z,101909.86
2018-07-19T00:10:08.768Z,101911.67
2018-07-19T00:12:38.067Z,101908.47
2018-07-19T00:15:07.733Z,101906.41
2018-07-19T00:17:37.232Z,101907.25
2018-07-19T00:20:07.149Z,101912.88
2018-07-19T00:22:36.538Z,101918.52
2018-07-19T00:25:05.872Z,101919.30
2018-07-19T00:27:35.192Z,101915.16
2018-07-19T00:30:05.154Z,101916.52
2018-07-19T00:32:34.461Z,101914.27
2018-07-19T00:35:03.561Z,101910.98
2018-07-19T00:37:32.880Z,101910.20
2018-07-19T00:40:02.466Z,101908.77
2018-07-19T00:42:32.307Z,101909.64
2018-07-19T00:45:01.607Z,101907.80
2018-07-19T00:47:30.918Z,101905.39
2018-07-19T00:50:00.211Z,101906.14
2018-07-19T00:52:29.520Z,101908.63
2018-07-19T00:54:58.836Z,101900.48
2018-07-19T00:57:28.144Z,101904.63
2018-07-19T00:59:57.510Z,101908.30
2018-07-19T01:02:26.808Z,101904.31
2018-07-19T01:04:56.185Z,101908.56
2018-07-19T01:07:25.482Z,101903.23
2018-07-19T01:09:54.800Z,101899.09
2018-07-19T01:12:24.152Z,101903.94
2018-07-19T01:14:53.300Z,101901.42
2018-07-19T01:17:22.396Z,101903.53
2018-07-19T01:19:51.662Z,101907.14
2018-07-19T01:22:20.984Z,101900.52
2018-07-19T01:24:50.387Z,101901.16
2018-07-19T01:27:19.904Z,101904.66
2018-07-19T01:29:49.204Z,101901.09
2018-07-19T01:32:18.525Z,101898.23
2018-07-19T01:34:47.818Z,101901.95
2018-07-19T01:37:16.908Z,101894.92
2018-07-19T01:39:45.982Z,101891.70
2018-07-19T01:42:28.008Z,101890.42
2018-07-19T01:44:57.347Z,101892.48
2018-07-19T01:47:26.720Z,101891.32
2018-07-19T01:49:56.132Z,101894.17
2018-07-19T01:52:25.289Z,101892.22
2018-07-19T01:54:54.584Z,101896.47
2018-07-19T01:57:23.690Z,101890.11
2018-07-19T01:59:53.014Z,101883.51
2018-07-19T02:02:28.308Z,101885.09
2018-07-19T02:05:03.035Z,101884.90
2018-07-19T02:07:32.331Z,101896.09
2018-07-19T02:10:01.640Z,101895.68
2018-07-19T02:12:31.377Z,101895.38
2018-07-19T02:15:00.673Z,101897.93
2018-07-19T02:17:29.960Z,101892.86
2018-07-19T02:19:59.367Z,101896.98
2018-07-19T02:22:28.616Z,101890.45
2018-07-19T02:24:57.711Z,101888.17
2018-07-19T02:27:27.013Z,101880.05
2018-07-19T02:29:56.311Z,101894.93
2018-07-19T02:32:25.612Z,101888.88
2018-07-19T02:34:54.740Z,101885.09
2018-07-19T02:37:24.033Z,101897.63
2018-07-19T02:39:53.128Z,101891.47
2018-07-19T02:42:22.234Z,101889.22
2018-07-19T02:44:52.005Z,101888.17
2018-07-19T02:47:21.131Z,101889.37
2018-07-19T02:49:50.426Z,101893.72
2018-07-19T02:52:19.651Z,101894.10
2018-07-19T02:54:48.975Z,101890.91
2018-07-19T02:57:18.346Z,101892.97
2018-07-19T02:59:47.638Z,101891.70
2018-07-19T03:02:17.012Z,101893.05
2018-07-19T03:04:46.382Z,101886.17
2018-07-19T03:07:15.538Z,101890.61
2018-07-19T03:09:45.045Z,101891.09
2018-07-19T03:12:14.345Z,101892.38
2018-07-19T03:14:43.669Z,101889.67
2018-07-19T03:17:13.066Z,101889.37
2018-07-19T03:19:42.458Z,101890.05
2018-07-19T03:22:12.338Z,101888.69
2018-07-19T03:24:42.076Z,101892.67
2018-07-19T03:27:11.243Z,101887.56
2018-07-19T03:29:40.575Z,101887.16
2018-07-19T03:32:10.375Z,101882.94
2018-07-19T03:34:40.697Z,101880.95
2018-07-19T03:37:09.910Z,101882.12
2018-07-19T03:39:39.308Z,101880.28
2018-07-19T03:42:08.624Z,101882.72
2018-07-19T03:44:38.022Z,101876.44
2018-07-19T03:47:07.314Z,101881.45
2018-07-19T03:49:36.615Z,101874.19
2018-07-19T03:52:05.955Z,101879.30
2018-07-19T03:54:36.482Z,101878.92
2018-07-19T03:57:05.927Z,101886.86
2018-07-19T03:59:35.221Z,101887.72
2018-07-19T04:02:04.609Z,101880.87
2018-07-19T04:04:33.883Z,101889.30
2018-07-19T04:07:03.219Z,101884.30
2018-07-19T04:09:32.635Z,101887.45
2018-07-19T04:12:01.803Z,101882.83
2018-07-19T04:14:31.128Z,101892.70
2018-07-19T04:17:00.485Z,101888.24
2018-07-19T04:19:29.815Z,101888.34
2018-07-19T04:21:59.112Z,101887.86
2018-07-19T04:24:28.454Z,101896.36
2018-07-19T04:26:57.788Z,101892.70
2018-07-19T04:29:26.898Z,101889.26
2018-07-19T04:31:56.183Z,101893.50
2018-07-19T04:34:25.606Z,101889.56
2018-07-19T04:36:55.430Z,101892.94
2018-07-19T04:39:24.753Z,101888.35
2018-07-19T04:41:54.118Z,101892.52
2018-07-19T04:44:23.588Z,101891.77
2018-07-19T04:46:57.192Z,101891.47
2018-07-19T04:49:27.824Z,101889.37
2018-07-19T04:51:56.928Z,101891.78
2018-07-19T04:54:26.238Z,101890.65
2018-07-19T04:56:55.551Z,101887.45
2018-07-19T04:59:24.960Z,101891.73
2018-07-19T05:01:54.323Z,101897.52
2018-07-19T05:04:23.621Z,101893.88
2018-07-19T05:06:52.906Z,101891.55
2018-07-19T05:09:22.216Z,101887.90
2018-07-19T05:11:51.539Z,101888.95
2018-07-19T05:14:20.948Z,101896.09
2018-07-19T05:16:50.248Z,101895.42
2018-07-19T05:19:19.520Z,101890.30
2018-07-19T05:21:49.170Z,101894.55
2018-07-19T05:24:18.299Z,101895.04
2018-07-19T05:26:47.667Z,101896.20
2018-07-19T05:29:16.783Z,101897.97
2018-07-19T05:31:46.083Z,101898.72
2018-07-19T05:34:15.247Z,101891.36
2018-07-19T05:36:44.543Z,101892.06
2018-07-19T05:39:14.187Z,101893.42
2018-07-19T05:41:43.763Z,101893.31
2018-07-19T05:44:13.151Z,101887.89
2018-07-19T05:46:42.439Z,101893.80
2018-07-19T05:49:11.548Z,101897.21
2018-07-19T05:51:40.955Z,101890.45
2018-07-19T05:54:10.663Z,101895.45
2018-07-19T05:56:39.944Z,101893.04
2018-07-19T05:59:09.272Z,101891.98
2018-07-19T06:01:38.612Z,101895.97
2018-07-19T06:04:07.947Z,101896.86
2018-07-19T06:06:37.247Z,101895.02
2018-07-19T06:09:10.321Z,101896.86
2018-07-19T06:11:39.888Z,101900.52
2018-07-19T06:14:09.197Z,101900.70
2018-07-19T06:16:38.471Z,101901.56
2018-07-19T06:19:07.789Z,101899.42
2018-07-19T06:21:37.151Z,101905.33
2018-07-19T06:24:06.491Z,101906.79
2018-07-19T06:26:35.862Z,101906.75
2018-07-19T06:29:05.249Z,101903.14
2018-07-19T06:31:34.723Z,101902.92
2018-07-19T06:34:03.949Z,101900.52
2018-07-19T06:36:33.239Z,101903.55
2018-07-19T06:39:02.525Z,101902.73
2018-07-19T06:41:31.845Z,101902.50
2018-07-19T06:44:01.253Z,101897.87
2018-07-19T06:46:30.555Z,101903.47
2018-07-19T06:49:00.859Z,101900.57
2018-07-19T06:51:29.977Z,101905.33
2018-07-19T06:53:59.272Z,101907.77
2018-07-19T06:56:28.653Z,101905.25
2018-07-19T06:58:58.216Z,101906.22
2018-07-19T07:01:27.371Z,101901.97
2018-07-19T07:03:56.759Z,101905.38
2018-07-19T07:06:26.176Z,101904.31
2018-07-19T07:08:55.473Z,101910.52
2018-07-19T07:11:24.744Z,101909.73
2018-07-19T07:13:54.063Z,101912.15
2018-07-19T07:16:23.383Z,101910.68
2018-07-19T07:18:53.191Z,101907.62
2018-07-19T07:21:22.810Z,101921.53
2018-07-19T07:23:52.207Z,101912.92
2018-07-19T07:26:21.415Z,101907.62
2018-07-19T07:28:50.696Z,101913.03
2018-07-19T07:31:20.092Z,101913.41
2018-07-19T07:41:33.553Z,101912.73
2018-07-19T07:44:03.029Z,101906.18
2018-07-19T07:46:32.287Z,101907.25
2018-07-19T07:49:01.433Z,101906.11
2018-07-19T07:51:30.772Z,101908.37
2018-07-19T07:54:00.056Z,101906.41
2018-07-19T07:56:29.266Z,101907.68
2018-07-19T07:58:58.571Z,101910.09
2018-07-19T08:01:27.643Z,101912.72
2018-07-19T08:03:56.955Z,101915.15
2018-07-19T08:06:26.231Z,101913.23
2018-07-19T08:08:55.316Z,101920.11
2018-07-19T08:11:24.772Z,101909.45
2018-07-19T08:13:54.046Z,101916.94
2018-07-19T08:16:23.327Z,101912.88
2018-07-19T08:18:52.679Z,101910.30
2018-07-19T08:21:22.040Z,101904.39
2018-07-19T08:23:51.403Z,101903.91
2018-07-19T08:26:20.752Z,101900.71
2018-07-19T08:28:50.103Z,101903.13
2018-07-19T08:31:19.772Z,101896.73
2018-07-19T08:33:49.230Z,101890.66
2018-07-19T08:36:18.594Z,101893.65
2018-07-19T08:38:47.683Z,101907.78
2018-07-19T08:41:16.951Z,101900.34
2018-07-19T08:43:51.553Z,101892.38
2018-07-19T08:46:20.892Z,101891.22
2018-07-19T08:48:50.217Z,101902.64
2018-07-19T08:51:19.482Z,101891.59
2018-07-19T08:53:48.804Z,101895.20
2018-07-19T08:58:47.213Z,101893.73
2018-07-19T09:01:16.580Z,101885.97
2018-07-19T09:03:45.680Z,101887.44
2018-07-19T09:06:14.996Z,101896.14
2018-07-19T09:08:44.316Z,101891.59
2018-07-19T09:11:13.632Z,101894.22
2018-07-19T09:13:42.791Z,101893.81
2018-07-19T09:16:12.060Z,101889.38
2018-07-19T09:18:41.404Z,101899.64
2018-07-19T09:21:10.734Z,101890.73
2018-07-19T09:23:40.094Z,101898.00
2018-07-19T09:26:09.208Z,101885.14
2018-07-19T09:28:38.483Z,101892.58
2018-07-19T09:31:07.609Z,101888.11
2018-07-19T09:33:36.908Z,101883.66
2018-07-19T09:36:06.208Z,101896.36
2018-07-19T09:38:35.659Z,101891.02
2018-07-19T09:41:05.016Z,101887.94
2018-07-19T09:43:34.397Z,101894.50
2018-07-19T09:46:03.816Z,101890.06
2018-07-19T09:48:35.973Z,101899.34
2018-07-19T09:51:05.275Z,101889.44
2018-07-19T09:53:34.614Z,101895.27
2018-07-19T09:56:08.816Z,101888.51
2018-07-19T09:58:40.136Z,101888.05
2018-07-19T10:01:24.972Z,101888.42
2018-07-19T10:03:54.480Z,101887.72
2018-07-19T10:06:24.016Z,101890.14
2018-07-19T10:08:53.348Z,101887.44
2018-07-19T10:11:22.646Z,101889.85
2018-07-19T10:13:52.084Z,101882.86
2018-07-19T10:16:21.432Z,101884.50
2018-07-19T10:18:50.745Z,101882.67
2018-07-19T10:21:24.152Z,101881.94
2018-07-19T10:23:53.552Z,101876.69
2018-07-19T10:26:23.153Z,101878.33
2018-07-19T10:28:52.827Z,101879.09
2018-07-19T10:31:22.304Z,101870.77
2018-07-19T10:33:51.692Z,101873.02
2018-07-19T10:36:21.389Z,101875.72
2018-07-19T10:38:50.623Z,101870.47
2018-07-19T10:41:20.039Z,101875.32
2018-07-19T10:43:49.498Z,101879.01
2018-07-19T10:46:19.280Z,101876.95
2018-07-19T10:48:48.681Z,101874.66
2018-07-19T10:51:17.893Z,101879.28
2018-07-19T10:53:47.086Z,101874.13
2018-07-19T10:56:16.276Z,101872.69
2018-07-19T10:58:45.513Z,101867.73
2018-07-19T11:01:14.689Z,101878.05
2018-07-19T11:03:44.566Z,101872.55
2018-07-19T11:06:13.742Z,101879.33
2018-07-19T11:08:43.168Z,101881.46
2018-07-19T11:11:12.498Z,101877.42
2018-07-19T11:13:41.864Z,101875.75
2018-07-19T11:16:11.089Z,101875.83
2018-07-19T11:18:40.333Z,101867.98
2018-07-19T11:21:09.656Z,101862.87
2018-07-19T11:23:38.744Z,101864.65
2018-07-19T11:26:07.915Z,101864.17
2018-07-19T11:28:37.212Z,101864.84
2018-07-19T11:31:06.464Z,101862.31
2018-07-19T11:33:35.788Z,101868.31
2018-07-19T11:36:05.003Z,101873.34
2018-07-19T11:38:34.292Z,101868.92
2018-07-19T11:41:03.696Z,101863.80
2018-07-19T11:43:32.962Z,101860.03
2018-07-19T11:46:02.094Z,101861.59
2018-07-19T11:48:31.210Z,101852.00
2018-07-19T11:51:00.446Z,101859.06
2018-07-19T11:53:29.604Z,101853.94
2018-07-19T11:55:58.774Z,101840.02
2018-07-19T11:58:28.091Z,101839.73
2018-07-19T12:00:57.502Z,101844.45
2018-07-19T12:03:26.599Z,101846.39
2018-07-19T12:05:55.706Z,101833.63
2018-07-19T12:08:24.802Z,101836.25
2018-07-19T12:10:54.074Z,101839.73
2018-07-19T12:13:23.280Z,101846.80
2018-07-19T12:15:52.484Z,101852.14
2018-07-19T12:18:21.600Z,101845.82
2018-07-19T12:20:50.733Z,101849.02
2018-07-19T12:23:20.342Z,101838.19
2018-07-19T12:25:49.764Z,101841.38
2018-07-19T12:28:18.863Z,101844.09
2018-07-19T12:30:48.176Z,101847.58
2018-07-19T12:33:20.280Z,101849.34
2018-07-19T12:35:49.451Z,101837.23
2018-07-19T12:38:18.764Z,101846.52
2018-07-19T12:40:48.257Z,101835.59
2018-07-19T12:43:17.547Z,101845.56
2018-07-19T12:45:46.739Z,101836.28
2018-07-19T12:48:15.848Z,101827.34
2018-07-19T12:50:44.964Z,101835.39
2018-07-19T12:53:14.132Z,101842.08
2018-07-19T12:55:43.340Z,101831.24
2018-07-19T12:58:12.589Z,101838.67
2018-07-19T13:00:41.824Z,101840.40
2018-07-19T13:03:10.924Z,101845.36
2018-07-19T13:05:40.067Z,101841.75
2018-07-19T13:08:09.212Z,101846.63
2018-07-19T13:10:38.344Z,101837.93
2018-07-19T13:13:07.902Z,101843.72
2018-07-19T13:15:37.717Z,101842.08
2018-07-19T13:18:06.985Z,101833.87
2018-07-19T13:20:36.318Z,101841.01
2018-07-19T13:23:05.557Z,101840.44
2018-07-19T13:25:34.829Z,101849.05
2018-07-19T13:28:04.050Z,101854.64
2018-07-19T13:30:33.267Z,101839.17
2018-07-19T13:33:02.575Z,101839.73
2018-07-19T13:35:31.783Z,101849.14
2018-07-19T13:38:01.043Z,101836.17
2018-07-19T13:40:30.414Z,101835.80
2018-07-19T13:42:59.766Z,101844.95
2018-07-19T13:45:29.130Z,101845.16
2018-07-19T13:47:58.756Z,101856.89
2018-07-19T13:50:28.204Z,101849.52
2018-07-19T13:54:12.200Z,101843.23
2018-07-19T13:56:42.690Z,101844.95
2018-07-19T13:59:12.347Z,101857.47
2018-07-19T14:01:42.120Z,101849.83
2018-07-19T14:04:11.863Z,101857.84
2018-07-19T14:06:41.558Z,101853.08
2018-07-19T14:09:14.043Z,101848.07
2018-07-19T14:11:43.509Z,101856.28
2018-07-19T14:14:12.973Z,101855.02
2018-07-19T14:16:42.349Z,101848.42
2018-07-19T14:19:11.723Z,101845.34
2018-07-19T14:21:41.002Z,101847.64
2018-07-19T14:24:10.353Z,101847.44
2018-07-19T14:26:39.641Z,101848.88
2018-07-19T14:29:08.953Z,101839.89
2018-07-19T14:31:38.262Z,101844.70
2018-07-19T14:34:07.503Z,101845.41
2018-07-19T14:36:36.758Z,101849.95
2018-07-19T14:39:09.147Z,101850.72
2018-07-19T14:41:38.621Z,101845.93
2018-07-19T14:44:08.353Z,101837.70
2018-07-19T14:46:37.671Z,101845.85
2018-07-19T14:49:06.949Z,101839.98
2018-07-19T14:51:36.192Z,101838.73
2018-07-19T14:54:05.514Z,101837.48
2018-07-19T14:56:34.909Z,101839.08
2018-07-19T14:59:04.220Z,101842.50
2018-07-19T15:01:33.474Z,101835.56
2018-07-19T15:04:02.823Z,101837.19
2018-07-19T15:06:32.312Z,101827.50
2018-07-19T15:09:01.864Z,101825.73
2018-07-19T15:11:31.220Z,101823.14
2018-07-19T15:14:00.443Z,101827.13
2018-07-19T15:16:29.742Z,101821.77
2018-07-19T15:18:59.036Z,101818.47
2018-07-19T15:21:28.275Z,101822.50
2018-07-19T15:23:57.648Z,101822.94
2018-07-19T15:26:26.963Z,101816.77
2018-07-19T15:28:56.416Z,101816.33
2018-07-19T15:31:25.999Z,101817.34
2018-07-19T15:33:55.393Z,101811.36
2018-07-19T15:36:24.770Z,101811.27
2018-07-19T15:38:54.164Z,101804.11
2018-07-19T15:41:23.630Z,101801.67
2018-07-19T15:43:53.073Z,101803.30
2018-07-19T15:46:22.491Z,101800.56
2018-07-19T15:48:51.825Z,101808.73
2018-07-19T15:51:21.308Z,101804.55
2018-07-19T15:53:50.803Z,101801.30
2018-07-19T15:56:20.197Z,101804.47
2018-07-19T15:58:49.709Z,101802.89
2018-07-19T16:01:19.099Z,101803.16
2018-07-19T16:03:48.643Z,101795.23
2018-07-19T16:06:18.114Z,101791.29
2018-07-19T16:08:47.571Z,101788.80
2018-07-19T16:11:17.244Z,101785.13
2018-07-19T16:13:46.688Z,101793.27
2018-07-19T16:16:16.455Z,101786.52
2018-07-19T16:18:45.858Z,101792.80
2018-07-19T16:21:15.245Z,101780.94
2018-07-19T16:23:44.610Z,101775.70
2018-07-19T16:26:14.074Z,101786.88
2018-07-19T16:28:43.583Z,101784.06
2018-07-19T16:31:13.185Z,101773.38
2018-07-19T16:33:42.531Z,101777.33
2018-07-19T16:36:11.881Z,101778.82
2018-07-19T16:38:41.461Z,101773.66
2018-07-19T16:41:10.851Z,101770.70
2018-07-19T16:43:40.192Z,101770.49
2018-07-19T16:46:09.717Z,101774.36
2018-07-19T16:48:39.071Z,101767.82
2018-07-19T16:51:08.494Z,101769.65
2018-07-19T16:53:37.915Z,101762.24
2018-07-19T16:56:07.701Z,101761.52
2018-07-19T16:58:37.092Z,101755.31
2018-07-19T17:01:06.612Z,101760.38
2018-07-19T17:03:35.819Z,101756.24
2018-07-19T17:06:05.029Z,101768.06
2018-07-19T17:08:34.115Z,101767.14
2018-07-19T17:11:03.224Z,101763.45
2018-07-19T17:13:32.307Z,101758.97
2018-07-19T17:16:01.441Z,101759.98
2018-07-19T17:18:30.738Z,101752.89
2018-07-19T17:21:00.182Z,101753.53
2018-07-19T17:23:29.451Z,101757.70
2018-07-19T17:25:58.602Z,101748.13
2018-07-19T17:28:27.714Z,101759.57
2018-07-19T17:30:56.808Z,101747.44
2018-07-19T17:33:26.057Z,101744.25
2018-07-19T17:35:55.176Z,101741.84
2018-07-19T17:38:24.247Z,101726.50
2018-07-19T17:40:53.387Z,101735.13
2018-07-19T17:43:22.490Z,101732.64
2018-07-19T17:45:51.874Z,101729.61
2018-07-19T17:48:20.957Z,101723.01
2018-07-19T17:50:50.050Z,101734.39
2018-07-19T17:53:19.155Z,101736.00
2018-07-19T17:55:48.245Z,101737.97
2018-07-19T17:58:17.335Z,101741.87
2018-07-19T18:00:46.444Z,101750.17
2018-07-19T18:03:15.542Z,101746.23
2018-07-19T18:05:44.612Z,101742.73
2018-07-19T18:08:13.757Z,101746.19
2018-07-19T18:10:42.930Z,101752.07
2018-07-19T18:13:12.031Z,101752.25
2018-07-19T18:15:41.089Z,101753.19
2018-07-19T18:18:10.207Z,101760.02
2018-07-19T18:20:39.432Z,101758.53
2018-07-19T18:23:08.612Z,101761.55
2018-07-19T18:25:37.672Z,101758.62
2018-07-19T18:28:07.069Z,101758.14
2018-07-19T18:30:36.203Z,101762.91
2018-07-19T18:33:05.506Z,101760.20
2018-07-19T18:35:34.611Z,101765.20
2018-07-19T18:38:03.908Z,101763.92
2018-07-19T18:40:32.989Z,101763.72
2018-07-19T18:43:02.110Z,101769.74
2018-07-19T18:45:31.184Z,101770.47
2018-07-19T18:48:00.399Z,101771.53
2018-07-19T18:50:29.667Z,101762.39
2018-07-19T18:52:58.735Z,101756.45
2018-07-19T18:55:27.810Z,101770.36
2018-07-19T18:57:56.879Z,101766.22
2018-07-19T19:00:25.955Z,101770.36
2018-07-19T19:02:55.091Z,101770.47
2018-07-19T19:05:24.172Z,101775.99
2018-07-19T19:07:53.244Z,101773.23
2018-07-19T19:10:22.348Z,101776.33
2018-07-19T19:12:51.485Z,101780.29
2018-07-19T19:15:20.777Z,101767.78
2018-07-19T19:17:49.935Z,101766.44
2018-07-19T19:20:19.027Z,101769.02
2018-07-19T19:22:48.131Z,101775.98
2018-07-19T19:25:17.219Z,101780.85
2018-07-19T19:27:46.545Z,101781.96
2018-07-19T19:30:15.620Z,101768.91
2018-07-19T19:32:44.725Z,101771.68
2018-07-19T19:35:13.871Z,101769.40
2018-07-19T19:37:42.951Z,101765.66
2018-07-19T19:40:12.111Z,101767.02
2018-07-19T19:42:41.205Z,101759.12
2018-07-19T19:45:10.354Z,101768.95
2018-07-19T19:47:39.420Z,101760.02
2018-07-19T19:50:08.645Z,101762.09
2018-07-19T19:52:37.812Z,101764.64
2018-07-19T19:55:06.893Z,101767.48
2018-07-19T19:57:36.007Z,101764.28
2018-07-19T20:00:05.937Z,101771.40
2018-07-19T20:02:35.046Z,101762.44
2018-07-19T20:05:04.190Z,101758.83
2018-07-19T20:07:33.301Z,101765.05
2018-07-19T20:10:02.401Z,101763.45
2018-07-19T20:12:31.501Z,101762.73
2018-07-19T20:15:00.591Z,101759.72
2018-07-19T20:17:29.664Z,101763.89
2018-07-19T20:19:58.762Z,101764.98
2018-07-19T20:22:27.889Z,101762.52
2018-07-19T20:24:56.951Z,101758.17
2018-07-19T20:27:26.052Z,101760.14
2018-07-19T20:29:55.255Z,101761.82
2018-07-19T20:32:24.350Z,101755.27
2018-07-19T20:34:53.463Z,101767.16
2018-07-19T20:37:22.535Z,101762.44
2018-07-19T20:39:51.619Z,101759.58
2018-07-19T20:42:20.869Z,101758.05
2018-07-19T20:44:49.977Z,101754.30
2018-07-19T20:47:19.067Z,101745.81
2018-07-19T20:49:48.231Z,101745.73
2018-07-19T20:52:17.512Z,101746.59
2018-07-19T20:54:46.620Z,101751.44
2018-07-19T20:57:15.707Z,101749.52
2018-07-19T20:59:44.776Z,101751.20
2018-07-19T21:02:13.895Z,101751.88
2018-07-19T21:04:42.985Z,101749.02
2018-07-19T21:07:12.088Z,101739.45
2018-07-19T21:09:41.331Z,101743.80
2018-07-19T21:12:10.609Z,101736.97
2018-07-19T21:14:39.693Z,101737.34
2018-07-19T21:17:08.767Z,101734.93
2018-07-19T21:19:37.854Z,101730.39
2018-07-19T21:22:07.083Z,101733.98
2018-07-19T21:24:36.170Z,101736.09
2018-07-19T21:27:05.380Z,101732.25
2018-07-19T21:29:34.459Z,101736.23
2018-07-19T21:32:03.865Z,101728.90
2018-07-19T21:34:33.020Z,101730.55
2018-07-19T21:37:02.173Z,101727.84
2018-07-19T21:39:31.256Z,101731.30
2018-07-19T21:42:00.346Z,101727.16
2018-07-19T21:44:29.447Z,101727.65
2018-07-19T21:46:58.568Z,101721.37
2018-07-19T21:49:27.732Z,101722.61
2018-07-19T21:51:57.006Z,101720.78
2018-07-19T21:54:26.080Z,101717.02
2018-07-19T21:56:55.164Z,101713.25
2018-07-19T21:59:24.252Z,101711.52
2018-07-19T22:01:53.332Z,101718.20
2018-07-19T22:04:22.422Z,101716.73
2018-07-19T22:06:51.483Z,101714.44
2018-07-19T22:09:22.524Z,101713.95
2018-07-19T22:11:52.041Z,101711.73
2018-07-19T22:14:21.105Z,101714.33
2018-07-19T22:16:50.294Z,101716.46
2018-07-19T22:19:19.506Z,101715.97
2018-07-19T22:21:48.668Z,101719.57
2018-07-19T22:24:17.990Z,101718.11
2018-07-19T22:26:47.058Z,101726.62
2018-07-19T22:29:16.125Z,101724.78
2018-07-19T22:31:45.232Z,101724.78
2018-07-19T22:34:14.341Z,101724.38
2018-07-19T22:36:43.434Z,101728.44
2018-07-19T22:39:12.783Z,101725.73
2018-07-19T22:41:41.932Z,101723.92
2018-07-19T22:44:11.037Z,101726.14
2018-07-19T22:46:40.138Z,101727.00
2018-07-19T22:49:09.237Z,101725.16
2018-07-19T22:51:38.303Z,101721.59
2018-07-19T22:54:07.411Z,101727.38
2018-07-19T22:56:36.507Z,101719.27
2018-07-19T22:59:05.597Z,101721.89
2018-07-19T23:01:34.736Z,101709.71
2018-07-19T23:04:03.976Z,101710.08
2018-07-19T23:06:33.061Z,101710.48
2018-07-19T23:09:02.136Z,101711.44
2018-07-19T23:11:31.306Z,101712.33
2018-07-19T23:14:00.376Z,101719.09
2018-07-19T23:16:29.453Z,101715.50
2018-07-19T23:18:58.520Z,101714.55
2018-07-19T23:21:27.645Z,101713.98
2018-07-19T23:23:56.776Z,101708.28
2018-07-19T23:26:26.176Z,101706.44
2018-07-19T23:28:55.272Z,101705.66
2018-07-19T23:31:24.388Z,101703.92
2018-07-19T23:33:53.477Z,101707.00
2018-07-19T23:36:27.426Z,101705.66
2018-07-19T23:39:16.574Z,101689.98
2018-07-19T23:42:49.816Z,101689.81
2018-07-19T23:45:21.752Z,101682.94
2018-07-19T23:47:52.034Z,101679.37
2018-07-19T23:50:21.088Z,101681.09
2018-07-19T23:52:50.396Z,101681.02
2018-07-19T23:55:19.458Z,101681.99
2018-07-19T23:57:48.604Z,101683.42
